Time;durP1;ratioP1;P1;durP2;ratioP2;P2;SDS_P1;SDS_P2;PMS_P1;PMS_P2;Temp;Humidity;BMP_temperature;BMP_pressure;BME280_temperature;BME280_humidity;BME280_pressure;Samples;Min_cycle;Max_cycle;Signal;HPM_P1;HPM_P2
2021/05/13 00:01:05;;;;;;;;;;;21.30;46.70;;;;;;457422;260;1301;-76
2021/05/13 00:03:06;;;;;;;;;;;21.30;46.60;;;;;;457331;260;1197;-76
2021/05/13 00:05:07;;;;;;;;;;;21.30;46.70;;;;;;457290;260;1106;-76
2021/05/13 00:07:09;;;;;;;;;;;21.30;46.70;;;;;;457316;260;1073;-75
2021/05/13 00:09:10;;;;;;;;;;;21.20;46.80;;;;;;457353;260;971;-75
2021/05/13 00:11:11;;;;;;;;;;;21.20;46.80;;;;;;457316;260;1273;-76
2021/05/13 00:13:12;;;;;;;;;;;21.30;46.90;;;;;;457403;260;1065;-76
2021/05/13 00:15:14;;;;;;;;;;;21.20;46.80;;;;;;457385;260;2218;-75
2021/05/13 00:17:15;;;;;;;;;;;21.30;46.90;;;;;;457433;260;1103;-75
2021/05/13 00:19:16;;;;;;;;;;;21.30;47.00;;;;;;457398;260;1050;-75
2021/05/13 00:21:17;;;;;;;;;;;21.30;46.90;;;;;;457177;255;1595;-76
2021/05/13 00:23:19;;;;;;;;;;;21.30;46.80;;;;;;457419;260;1035;-75
2021/05/13 00:25:20;;;;;;;;;;;21.30;46.80;;;;;;457356;260;1109;-76
2021/05/13 00:27:21;;;;;;;;;;;21.40;46.70;;;;;;457380;260;1293;-75
2021/05/13 00:29:26;;;;;;;;;;;21.40;46.70;;;;;;457285;260;1050;-75
2021/05/13 00:31:24;;;;;;;;;;;21.30;46.80;;;;;;457091;256;1446;-76
2021/05/13 00:33:25;;;;;;;;;;;21.20;46.90;;;;;;457326;257;1074;-76
2021/05/13 00:35:26;;;;;;;;;;;21.20;46.90;;;;;;457355;260;2203;-76
2021/05/13 00:37:28;;;;;;;;;;;21.10;47.00;;;;;;457323;260;1200;-75
2021/05/13 00:39:29;;;;;;;;;;;21.20;47.10;;;;;;457289;260;1107;-75
2021/05/13 00:41:30;;;;;;;;;;;21.10;47.00;;;;;;457376;260;1289;-75
2021/05/13 00:43:32;;;;;;;;;;;21.20;47.00;;;;;;457379;260;1043;-75
2021/05/13 00:45:33;;;;;;;;;;;21.20;47.10;;;;;;457352;260;1003;-76
2021/05/13 00:47:36;;;;;;;;;;;21.20;47.00;;;;;;457309;260;1188;-76
2021/05/13 00:49:35;;;;;;;;;;;21.20;47.10;;;;;;457386;260;1358;-76
2021/05/13 00:51:37;;;;;;;;;;;21.20;47.10;;;;;;457399;255;1224;-76
2021/05/13 00:53:38;;;;;;;;;;;21.20;47.00;;;;;;457401;260;1073;-76
2021/05/13 00:55:39;;;;;;;;;;;21.20;47.00;;;;;;457338;260;2155;-76
2021/05/13 00:57:44;;;;;;;;;;;21.20;47.00;;;;;;457353;257;1147;-75
2021/05/13 00:59:44;;;;;;;;;;;21.30;46.90;;;;;;457155;260;1440;-75
2021/05/13 01:01:49;;;;;;;;;;;21.20;46.90;;;;;;457283;260;1325;-75
2021/05/13 01:03:50;;;;;;;;;;;21.30;46.90;;;;;;457368;260;1047;-75
2021/05/13 01:05:52;;;;;;;;;;;21.30;46.90;;;;;;457375;260;1080;-75
2021/05/13 01:07:53;;;;;;;;;;;21.20;46.80;;;;;;457405;260;1301;-75
2021/05/13 01:09:54;;;;;;;;;;;21.20;46.90;;;;;;457393;260;1056;-75
2021/05/13 01:11:58;;;;;;;;;;;21.20;47.00;;;;;;457424;260;1355;-75
2021/05/13 01:14:02;;;;;;;;;;;21.30;46.80;;;;;;457391;260;1494;-75
2021/05/13 01:16:10;;;;;;;;;;;21.30;46.80;;;;;;457037;260;2199;-75
2021/05/13 01:18:12;;;;;;;;;;;21.20;46.80;;;;;;457141;260;1513;-75
2021/05/13 01:20:09;;;;;;;;;;;21.30;46.80;;;;;;457170;260;1403;-75
2021/05/13 01:22:10;;;;;;;;;;;21.30;46.60;;;;;;457319;260;1201;-75
2021/05/13 01:24:12;;;;;;;;;;;21.20;46.70;;;;;;457408;260;1160;-75
2021/05/13 01:26:14;;;;;;;;;;;21.10;46.70;;;;;;457283;260;1350;-75
2021/05/13 01:28:15;;;;;;;;;;;21.10;46.80;;;;;;457332;260;1419;-75
2021/05/13 01:30:16;;;;;;;;;;;21.00;47.00;;;;;;457364;260;1056;-75
2021/05/13 01:32:18;;;;;;;;;;;21.00;47.00;;;;;;457374;260;1146;-75
2021/05/13 01:34:19;;;;;;;;;;;21.00;47.00;;;;;;457441;260;1149;-75
2021/05/13 01:36:20;;;;;;;;;;;21.00;47.10;;;;;;457463;260;2207;-76
2021/05/13 01:38:21;;;;;;;;;;;21.00;47.00;;;;;;457402;260;1017;-76
2021/05/13 01:40:23;;;;;;;;;;;21.00;46.90;;;;;;457334;260;1212;-75
2021/05/13 01:42:24;;;;;;;;;;;21.00;47.00;;;;;;457326;260;1155;-75
2021/05/13 01:44:25;;;;;;;;;;;21.00;47.00;;;;;;457340;260;1230;-76
2021/05/13 01:46:27;;;;;;;;;;;21.00;47.00;;;;;;457311;260;1254;-76
2021/05/13 01:48:28;;;;;;;;;;;21.00;47.10;;;;;;457394;260;1034;-76
2021/05/13 01:50:29;;;;;;;;;;;21.00;47.00;;;;;;457354;255;1236;-75
2021/05/13 01:52:30;;;;;;;;;;;21.00;46.90;;;;;;457428;260;1086;-75
2021/05/13 01:54:32;;;;;;;;;;;21.00;46.90;;;;;;457345;260;1050;-76
2021/05/13 01:56:33;;;;;;;;;;;21.00;46.90;;;;;;457322;256;2159;-75
2021/05/13 01:58:34;;;;;;;;;;;21.00;46.90;;;;;;457345;260;1236;-75
2021/05/13 02:00:36;;;;;;;;;;;21.00;46.80;;;;;;457394;260;1123;-75
2021/05/13 02:02:37;;;;;;;;;;;21.00;47.00;;;;;;457479;260;1228;-76
2021/05/13 02:04:38;;;;;;;;;;;21.00;46.90;;;;;;457495;260;1123;-75
2021/05/13 02:06:39;;;;;;;;;;;21.00;46.90;;;;;;457439;260;1291;-75
2021/05/13 02:08:41;;;;;;;;;;;20.90;46.90;;;;;;457426;260;1084;-75
2021/05/13 02:10:42;;;;;;;;;;;21.00;47.00;;;;;;457381;260;1242;-76
2021/05/13 02:12:43;;;;;;;;;;;21.00;47.00;;;;;;457356;260;1186;-75
2021/05/13 02:14:45;;;;;;;;;;;21.00;46.80;;;;;;457374;260;973;-75
2021/05/13 02:16:46;;;;;;;;;;;21.10;46.70;;;;;;457286;260;2206;-75
2021/05/13 02:18:47;;;;;;;;;;;21.00;46.80;;;;;;457318;260;1076;-76
2021/05/13 02:20:48;;;;;;;;;;;21.00;46.80;;;;;;457256;255;1219;-75
2021/05/13 02:22:50;;;;;;;;;;;21.00;46.90;;;;;;457296;260;1040;-75
2021/05/13 02:24:51;;;;;;;;;;;21.00;47.00;;;;;;457392;260;1082;-75
2021/05/13 02:26:52;;;;;;;;;;;21.00;47.00;;;;;;457349;260;1196;-76
2021/05/13 02:28:54;;;;;;;;;;;21.00;47.00;;;;;;457418;260;1257;-75
2021/05/13 02:30:55;;;;;;;;;;;21.10;46.80;;;;;;457363;260;1115;-76
2021/05/13 02:32:56;;;;;;;;;;;21.10;46.80;;;;;;457462;260;1151;-75
2021/05/13 02:34:57;;;;;;;;;;;21.00;46.90;;;;;;457466;260;1019;-75
2021/05/13 02:36:59;;;;;;;;;;;21.00;46.80;;;;;;457502;257;2194;-75
2021/05/13 02:39:00;;;;;;;;;;;21.00;46.90;;;;;;457395;260;1080;-76
2021/05/13 02:41:01;;;;;;;;;;;21.00;46.80;;;;;;457433;260;1249;-75
2021/05/13 02:43:04;;;;;;;;;;;20.90;47.00;;;;;;457361;260;1165;-75
2021/05/13 02:45:04;;;;;;;;;;;20.90;47.00;;;;;;457386;260;1562;-75
2021/05/13 02:47:05;;;;;;;;;;;21.10;46.90;;;;;;457335;260;1214;-75
2021/05/13 02:49:06;;;;;;;;;;;21.00;46.80;;;;;;457415;260;1126;-75
2021/05/13 02:51:08;;;;;;;;;;;21.00;47.00;;;;;;457324;260;1238;-75
2021/05/13 02:53:09;;;;;;;;;;;21.00;47.00;;;;;;457490;260;1089;-75
2021/05/13 02:55:10;;;;;;;;;;;21.00;47.00;;;;;;457420;260;1067;-75
2021/05/13 02:57:12;;;;;;;;;;;21.00;47.00;;;;;;457415;260;2162;-76
2021/05/13 02:59:15;;;;;;;;;;;21.00;46.90;;;;;;457437;260;1322;-75
2021/05/13 03:01:24;;;;;;;;;;;21.00;46.90;;;;;;457337;260;1346;-76
2021/05/13 03:03:23;;;;;;;;;;;21.10;46.90;;;;;;457387;255;1360;-75
2021/05/13 03:05:27;;;;;;;;;;;21.10;46.80;;;;;;457368;260;1292;-75
2021/05/13 03:07:27;;;;;;;;;;;21.00;46.90;;;;;;457383;260;1100;-75
2021/05/13 03:09:29;;;;;;;;;;;21.00;47.00;;;;;;457283;260;1360;-76
2021/05/13 03:11:30;;;;;;;;;;;21.00;46.90;;;;;;457285;260;1202;-75
2021/05/13 03:13:31;;;;;;;;;;;21.00;46.90;;;;;;457405;260;1180;-76
2021/05/13 03:15:32;;;;;;;;;;;21.10;46.90;;;;;;457355;260;2205;-75
2021/05/13 03:17:34;;;;;;;;;;;21.00;46.90;;;;;;457329;260;1097;-76
2021/05/13 03:19:41;;;;;;;;;;;21.00;47.00;;;;;;457361;260;1128;-76
2021/05/13 03:21:39;;;;;;;;;;;21.00;46.80;;;;;;457098;260;1417;-75
2021/05/13 03:23:44;;;;;;;;;;;21.10;46.80;;;;;;457311;260;1610;-75
2021/05/13 03:25:44;;;;;;;;;;;21.10;46.70;;;;;;457166;260;1410;-75
2021/05/13 03:27:46;;;;;;;;;;;21.00;46.90;;;;;;457279;257;1564;-75
2021/05/13 03:29:45;;;;;;;;;;;21.00;47.10;;;;;;457298;260;1397;-75
2021/05/13 03:31:46;;;;;;;;;;;21.00;47.00;;;;;;457392;260;1250;-75
2021/05/13 03:33:47;;;;;;;;;;;21.10;47.00;;;;;;457416;260;1088;-75
2021/05/13 03:35:48;;;;;;;;;;;21.00;47.00;;;;;;457267;260;2229;-75
2021/05/13 03:37:50;;;;;;;;;;;21.10;47.00;;;;;;457450;260;1201;-75
2021/05/13 03:39:51;;;;;;;;;;;21.10;46.90;;;;;;457272;260;1229;-75
2021/05/13 03:41:52;;;;;;;;;;;21.00;47.00;;;;;;457357;260;1249;-75
2021/05/13 03:43:54;;;;;;;;;;;21.10;47.00;;;;;;457408;260;1104;-75
2021/05/13 03:45:55;;;;;;;;;;;21.00;47.00;;;;;;457370;260;1285;-75
2021/05/13 03:47:56;;;;;;;;;;;21.10;47.00;;;;;;457414;260;1091;-75
2021/05/13 03:49:57;;;;;;;;;;;21.10;46.80;;;;;;457052;260;1366;-75
2021/05/13 03:51:59;;;;;;;;;;;21.10;47.00;;;;;;457357;255;1168;-75
2021/05/13 03:54:00;;;;;;;;;;;21.10;46.80;;;;;;457455;260;1195;-76
2021/05/13 03:56:01;;;;;;;;;;;21.10;46.90;;;;;;457418;260;2155;-75
2021/05/13 03:58:04;;;;;;;;;;;21.00;46.90;;;;;;457449;260;1051;-76
2021/05/13 04:00:07;;;;;;;;;;;21.00;47.00;;;;;;457383;260;1448;-75
2021/05/13 04:02:10;;;;;;;;;;;21.00;47.00;;;;;;457154;260;1456;-75
2021/05/13 04:04:08;;;;;;;;;;;21.10;46.80;;;;;;457141;260;1504;-75
2021/05/13 04:06:10;;;;;;;;;;;21.10;46.90;;;;;;457324;260;1164;-76
2021/05/13 04:08:11;;;;;;;;;;;21.10;47.00;;;;;;457298;260;1165;-76
2021/05/13 04:10:12;;;;;;;;;;;21.10;46.80;;;;;;457326;260;1068;-75
2021/05/13 04:12:14;;;;;;;;;;;21.10;46.90;;;;;;457451;260;1231;-76
2021/05/13 04:14:15;;;;;;;;;;;21.10;46.80;;;;;;457431;260;1028;-76
2021/05/13 04:16:24;;;;;;;;;;;21.10;47.00;;;;;;457347;260;2178;-76
2021/05/13 04:18:17;;;;;;;;;;;21.10;47.00;;;;;;457056;260;1455;-75
2021/05/13 04:20:19;;;;;;;;;;;21.10;46.90;;;;;;457358;260;1044;-76
2021/05/13 04:22:20;;;;;;;;;;;21.10;46.80;;;;;;457335;260;1110;-75
2021/05/13 04:24:21;;;;;;;;;;;21.10;46.80;;;;;;457421;260;1044;-76
2021/05/13 04:26:23;;;;;;;;;;;21.10;46.80;;;;;;457352;260;1148;-76
2021/05/13 04:28:24;;;;;;;;;;;21.10;46.70;;;;;;457374;260;1054;-76
2021/05/13 04:30:25;;;;;;;;;;;21.10;46.80;;;;;;457330;260;1148;-75
2021/05/13 04:32:26;;;;;;;;;;;21.10;46.80;;;;;;457353;260;1066;-76
2021/05/13 04:34:28;;;;;;;;;;;21.10;46.90;;;;;;457346;260;1199;-75
2021/05/13 04:36:29;;;;;;;;;;;21.10;46.80;;;;;;457236;260;2159;-75
2021/05/13 04:38:31;;;;;;;;;;;21.10;46.90;;;;;;457323;260;1126;-75
2021/05/13 04:40:32;;;;;;;;;;;21.10;46.80;;;;;;457410;260;1061;-76
2021/05/13 04:42:33;;;;;;;;;;;21.10;46.80;;;;;;457346;260;1129;-75
2021/05/13 04:44:36;;;;;;;;;;;21.10;46.90;;;;;;457438;260;1001;-75
2021/05/13 04:46:37;;;;;;;;;;;21.10;46.90;;;;;;457294;260;1317;-76
2021/05/13 04:48:53;;;;;;;;;;;21.10;46.80;;;;;;457322;260;1433;-76
2021/05/13 04:50:43;;;;;;;;;;;21.10;46.80;;;;;;456714;260;1414;-75
2021/05/13 04:52:44;;;;;;;;;;;21.10;46.90;;;;;;457406;260;1125;-75
2021/05/13 04:54:45;;;;;;;;;;;21.10;46.80;;;;;;457311;260;1111;-76
2021/05/13 04:56:47;;;;;;;;;;;21.10;46.90;;;;;;457268;257;2198;-75
2021/05/13 04:58:48;;;;;;;;;;;21.10;46.80;;;;;;457361;260;1030;-75
2021/05/13 05:00:49;;;;;;;;;;;21.10;46.80;;;;;;457383;260;1296;-76
2021/05/13 05:02:51;;;;;;;;;;;21.10;46.80;;;;;;457370;260;1092;-75
2021/05/13 05:04:52;;;;;;;;;;;21.10;46.80;;;;;;457340;260;1111;-76
2021/05/13 05:06:53;;;;;;;;;;;21.10;46.70;;;;;;457317;260;1183;-75
2021/05/13 05:08:55;;;;;;;;;;;21.20;46.70;;;;;;457411;260;1074;-75
2021/05/13 05:10:57;;;;;;;;;;;21.10;46.60;;;;;;457384;255;1131;-75
2021/05/13 05:12:58;;;;;;;;;;;21.10;46.60;;;;;;457413;260;1182;-76
2021/05/13 05:14:59;;;;;;;;;;;21.20;46.60;;;;;;457388;260;1098;-75
2021/05/13 05:17:00;;;;;;;;;;;21.20;46.70;;;;;;457456;260;2206;-76
2021/05/13 05:19:02;;;;;;;;;;;21.20;46.50;;;;;;457463;260;1088;-76
2021/05/13 05:21:03;;;;;;;;;;;21.20;46.60;;;;;;457322;260;1253;-75
2021/05/13 05:23:04;;;;;;;;;;;21.20;46.50;;;;;;457355;260;1043;-76
2021/05/13 05:25:05;;;;;;;;;;;21.10;46.60;;;;;;457372;260;1095;-75
2021/05/13 05:27:07;;;;;;;;;;;21.10;46.70;;;;;;457386;260;1240;-76
2021/05/13 05:29:08;;;;;;;;;;;21.00;46.90;;;;;;457368;260;1025;-75
2021/05/13 05:31:09;;;;;;;;;;;21.00;46.90;;;;;;457265;260;1334;-75
2021/05/13 05:33:11;;;;;;;;;;;21.00;46.90;;;;;;457402;260;1042;-75
2021/05/13 05:35:12;;;;;;;;;;;21.10;46.80;;;;;;457321;260;1143;-75
2021/05/13 05:37:13;;;;;;;;;;;21.00;46.90;;;;;;457345;260;2178;-76
2021/05/13 05:39:14;;;;;;;;;;;21.00;46.80;;;;;;457309;260;1171;-76
2021/05/13 05:41:16;;;;;;;;;;;21.00;46.80;;;;;;457324;260;1362;-75
2021/05/13 05:43:17;;;;;;;;;;;21.10;46.70;;;;;;457339;260;1287;-75
2021/05/13 05:45:20;;;;;;;;;;;21.10;46.80;;;;;;457285;260;1230;-76
2021/05/13 05:47:20;;;;;;;;;;;21.20;46.70;;;;;;457198;260;1437;-75
2021/05/13 05:49:21;;;;;;;;;;;21.00;46.70;;;;;;457234;260;1106;-75
2021/05/13 05:51:22;;;;;;;;;;;21.00;46.80;;;;;;457242;260;1217;-75
2021/05/13 05:53:23;;;;;;;;;;;21.10;46.80;;;;;;457287;260;1243;-75
2021/05/13 05:55:25;;;;;;;;;;;21.00;46.90;;;;;;457257;260;1093;-75
2021/05/13 05:57:26;;;;;;;;;;;21.00;47.00;;;;;;457250;260;2182;-76
2021/05/13 05:59:27;;;;;;;;;;;21.00;47.00;;;;;;457341;260;1076;-76
2021/05/13 06:01:29;;;;;;;;;;;21.00;46.80;;;;;;457261;256;1158;-75
2021/05/13 06:03:30;;;;;;;;;;;21.10;46.80;;;;;;457316;260;1370;-76
2021/05/13 06:05:31;;;;;;;;;;;21.10;46.80;;;;;;457302;260;1223;-75
2021/05/13 06:07:32;;;;;;;;;;;21.00;46.90;;;;;;457226;260;1263;-75
2021/05/13 06:09:34;;;;;;;;;;;21.00;47.00;;;;;;457279;260;1130;-76
2021/05/13 06:11:35;;;;;;;;;;;21.10;46.90;;;;;;457321;260;1114;-75
2021/05/13 06:13:36;;;;;;;;;;;21.00;47.00;;;;;;457318;260;1133;-75
2021/05/13 06:15:38;;;;;;;;;;;21.00;47.00;;;;;;457186;260;1226;-76
2021/05/13 06:17:39;;;;;;;;;;;21.00;47.00;;;;;;457247;260;2163;-75
2021/05/13 06:19:40;;;;;;;;;;;21.10;46.90;;;;;;457194;260;1070;-75
2021/05/13 06:21:42;;;;;;;;;;;21.00;46.90;;;;;;457213;260;1240;-75
2021/05/13 06:23:43;;;;;;;;;;;21.00;47.10;;;;;;457273;260;1154;-76
2021/05/13 06:25:44;;;;;;;;;;;21.00;47.00;;;;;;457246;260;1175;-75
2021/05/13 06:27:45;;;;;;;;;;;21.00;47.00;;;;;;457239;260;1170;-76
2021/05/13 06:29:47;;;;;;;;;;;21.00;47.00;;;;;;457352;260;1119;-76
2021/05/13 06:31:48;;;;;;;;;;;21.00;46.90;;;;;;457318;257;1333;-76
2021/05/13 06:33:49;;;;;;;;;;;21.00;47.00;;;;;;457368;260;1219;-75
2021/05/13 06:35:50;;;;;;;;;;;21.00;47.00;;;;;;457274;260;1219;-75
2021/05/13 06:37:52;;;;;;;;;;;21.00;47.10;;;;;;457399;260;2155;-76
2021/05/13 06:39:53;;;;;;;;;;;20.90;47.20;;;;;;457357;260;1256;-76
2021/05/13 06:41:54;;;;;;;;;;;21.00;47.20;;;;;;457268;260;1093;-75
2021/05/13 06:43:56;;;;;;;;;;;21.00;47.00;;;;;;457301;260;1065;-75
2021/05/13 06:45:57;;;;;;;;;;;21.10;47.00;;;;;;457204;260;1431;-76
2021/05/13 06:47:58;;;;;;;;;;;21.10;47.10;;;;;;457265;260;1339;-75
2021/05/13 06:49:59;;;;;;;;;;;21.10;47.00;;;;;;457259;260;1090;-75
2021/05/13 06:52:01;;;;;;;;;;;21.10;47.00;;;;;;457275;260;1228;-75
2021/05/13 06:54:02;;;;;;;;;;;21.10;47.00;;;;;;457443;260;1053;-75
2021/05/13 06:56:03;;;;;;;;;;;21.00;46.90;;;;;;457235;260;1174;-76
2021/05/13 06:58:04;;;;;;;;;;;21.10;47.00;;;;;;457329;260;2214;-76
2021/05/13 07:00:06;;;;;;;;;;;21.10;47.00;;;;;;457263;260;1045;-75
2021/05/13 07:02:07;;;;;;;;;;;21.10;47.00;;;;;;457205;260;1200;-75
2021/05/13 07:04:08;;;;;;;;;;;21.00;47.00;;;;;;457448;260;1190;-75
2021/05/13 07:06:10;;;;;;;;;;;21.10;47.00;;;;;;457292;260;1279;-75
2021/05/13 07:08:11;;;;;;;;;;;21.10;47.00;;;;;;457296;260;1247;-76
2021/05/13 07:10:12;;;;;;;;;;;21.10;47.00;;;;;;457286;260;1133;-76
2021/05/13 07:12:14;;;;;;;;;;;21.10;47.10;;;;;;457246;260;1076;-76
2021/05/13 07:14:15;;;;;;;;;;;21.00;47.10;;;;;;457319;260;1061;-76
2021/05/13 07:16:16;;;;;;;;;;;21.00;47.20;;;;;;457328;260;1161;-75
2021/05/13 07:18:18;;;;;;;;;;;21.00;47.20;;;;;;457315;260;2206;-75
2021/05/13 07:20:21;;;;;;;;;;;21.10;47.30;;;;;;457341;260;1255;-76
2021/05/13 07:22:21;;;;;;;;;;;21.10;47.20;;;;;;457316;260;1406;-76
2021/05/13 07:24:22;;;;;;;;;;;21.10;47.20;;;;;;457386;260;1102;-75
2021/05/13 07:26:24;;;;;;;;;;;21.10;47.20;;;;;;457325;255;1157;-75
2021/05/13 07:28:24;;;;;;;;;;;21.10;47.30;;;;;;457304;260;1480;-75
2021/05/13 07:30:26;;;;;;;;;;;21.10;47.30;;;;;;457269;260;1034;-75
2021/05/13 07:32:27;;;;;;;;;;;21.20;47.20;;;;;;457299;260;1120;-75
2021/05/13 07:34:28;;;;;;;;;;;21.10;47.20;;;;;;457268;260;1194;-75
2021/05/13 07:36:30;;;;;;;;;;;21.10;47.30;;;;;;457193;256;1207;-75
2021/05/13 07:38:31;;;;;;;;;;;21.10;47.30;;;;;;457188;260;2198;-75
2021/05/13 07:40:32;;;;;;;;;;;21.10;47.30;;;;;;457146;260;1144;-76
2021/05/13 07:42:33;;;;;;;;;;;21.10;47.30;;;;;;457261;260;1078;-75
2021/05/13 07:44:35;;;;;;;;;;;21.10;47.10;;;;;;457304;260;1129;-75
2021/05/13 07:46:39;;;;;;;;;;;21.10;47.30;;;;;;457298;255;1366;-75
2021/05/13 07:48:38;;;;;;;;;;;21.10;47.20;;;;;;457245;260;1549;-75
2021/05/13 07:50:40;;;;;;;;;;;21.10;47.30;;;;;;457298;260;1095;-75
2021/05/13 07:52:41;;;;;;;;;;;21.10;47.30;;;;;;457339;260;1125;-76
2021/05/13 07:54:42;;;;;;;;;;;21.00;47.20;;;;;;457270;260;1055;-75
2021/05/13 07:56:46;;;;;;;;;;;21.10;47.20;;;;;;457300;253;1214;-75
2021/05/13 07:58:45;;;;;;;;;;;21.10;47.20;;;;;;457146;260;2147;-76
2021/05/13 08:00:46;;;;;;;;;;;21.10;47.20;;;;;;457268;260;1138;-75
2021/05/13 08:02:47;;;;;;;;;;;21.10;47.30;;;;;;457229;260;1105;-75
2021/05/13 08:04:49;;;;;;;;;;;21.10;47.30;;;;;;457265;260;1214;-76
2021/05/13 08:06:50;;;;;;;;;;;21.10;47.20;;;;;;457266;260;1095;-76
2021/05/13 08:08:51;;;;;;;;;;;21.10;47.30;;;;;;457327;260;1099;-76
2021/05/13 08:10:53;;;;;;;;;;;21.20;47.20;;;;;;457341;260;1024;-76
2021/05/13 08:12:54;;;;;;;;;;;21.10;47.10;;;;;;457368;260;1167;-75
2021/05/13 08:14:55;;;;;;;;;;;21.10;47.20;;;;;;457387;260;1097;-76
2021/05/13 08:16:56;;;;;;;;;;;21.00;47.20;;;;;;457423;260;1134;-76
2021/05/13 08:18:58;;;;;;;;;;;21.00;47.30;;;;;;457379;260;2202;-76
2021/05/13 08:20:59;;;;;;;;;;;21.00;47.50;;;;;;457321;260;1171;-75
2021/05/13 08:23:01;;;;;;;;;;;21.00;47.40;;;;;;457393;260;1082;-75
2021/05/13 08:25:02;;;;;;;;;;;21.00;47.50;;;;;;457347;260;1050;-75
2021/05/13 08:27:03;;;;;;;;;;;21.00;47.30;;;;;;457389;260;1092;-76
2021/05/13 08:29:04;;;;;;;;;;;21.10;47.30;;;;;;457283;260;1091;-76
2021/05/13 08:31:06;;;;;;;;;;;21.10;47.30;;;;;;457206;260;1262;-75
2021/05/13 08:33:07;;;;;;;;;;;21.10;47.20;;;;;;457274;260;1031;-75
2021/05/13 08:35:08;;;;;;;;;;;21.10;47.20;;;;;;457259;260;1236;-75
2021/05/13 08:37:10;;;;;;;;;;;21.10;47.30;;;;;;457192;260;1164;-75
2021/05/13 08:39:11;;;;;;;;;;;21.10;47.20;;;;;;457262;260;2202;-75
2021/05/13 08:41:12;;;;;;;;;;;21.10;47.40;;;;;;457368;260;1356;-75
2021/05/13 08:43:13;;;;;;;;;;;21.10;47.40;;;;;;457383;260;1076;-76
2021/05/13 08:45:15;;;;;;;;;;;21.00;47.40;;;;;;457309;260;1228;-75
2021/05/13 08:47:16;;;;;;;;;;;21.10;47.40;;;;;;457350;260;1189;-75
2021/05/13 08:49:17;;;;;;;;;;;21.20;47.30;;;;;;457340;260;1231;-75
2021/05/13 08:51:19;;;;;;;;;;;21.10;47.40;;;;;;457313;256;1309;-75
2021/05/13 08:53:20;;;;;;;;;;;21.20;47.20;;;;;;457385;260;1136;-76
2021/05/13 08:55:21;;;;;;;;;;;21.20;47.10;;;;;;457293;260;1149;-76
2021/05/13 08:57:22;;;;;;;;;;;21.30;47.10;;;;;;457236;260;2413;-76
2021/05/13 08:59:24;;;;;;;;;;;21.20;47.10;;;;;;457254;260;1105;-76
2021/05/13 09:01:25;;;;;;;;;;;21.20;46.90;;;;;;457227;256;1117;-76
2021/05/13 09:03:26;;;;;;;;;;;21.30;46.80;;;;;;457252;260;1112;-76
2021/05/13 09:05:28;;;;;;;;;;;21.30;46.90;;;;;;457317;260;1229;-75
2021/05/13 09:07:29;;;;;;;;;;;21.20;47.00;;;;;;457292;260;1276;-75
2021/05/13 09:09:30;;;;;;;;;;;21.20;47.10;;;;;;457309;260;1081;-76
2021/05/13 09:11:31;;;;;;;;;;;21.20;47.10;;;;;;457340;260;1246;-75
2021/05/13 09:13:33;;;;;;;;;;;21.20;47.10;;;;;;457355;260;1288;-75
2021/05/13 09:15:35;;;;;;;;;;;21.20;47.00;;;;;;457261;260;988;-75
2021/05/13 09:17:35;;;;;;;;;;;21.20;47.00;;;;;;457269;260;2209;-75
2021/05/13 09:19:37;;;;;;;;;;;21.20;46.80;;;;;;457222;260;1061;-75
2021/05/13 09:21:38;;;;;;;;;;;21.20;47.00;;;;;;457133;260;1488;-75
2021/05/13 09:23:39;;;;;;;;;;;21.20;46.90;;;;;;457244;260;1165;-76
2021/05/13 09:25:40;;;;;;;;;;;21.30;46.90;;;;;;457263;260;1038;-75
2021/05/13 09:27:42;;;;;;;;;;;21.30;46.90;;;;;;457334;260;1146;-75
2021/05/13 09:29:43;;;;;;;;;;;21.30;46.80;;;;;;457285;260;1134;-76
2021/05/13 09:31:46;;;;;;;;;;;21.20;46.70;;;;;;457270;260;1157;-76
2021/05/13 09:33:45;;;;;;;;;;;21.20;46.70;;;;;;457216;260;1510;-76
2021/05/13 09:35:47;;;;;;;;;;;21.20;46.70;;;;;;457363;260;1184;-75
2021/05/13 09:37:48;;;;;;;;;;;21.20;46.80;;;;;;457256;260;2414;-76
2021/05/13 09:39:49;;;;;;;;;;;21.10;46.90;;;;;;457245;260;1068;-75
2021/05/13 09:41:51;;;;;;;;;;;21.20;46.80;;;;;;457276;260;1334;-75
2021/05/13 09:43:52;;;;;;;;;;;21.20;46.70;;;;;;457321;260;1251;-76
2021/05/13 09:45:53;;;;;;;;;;;21.20;46.80;;;;;;457273;260;1201;-76
2021/05/13 09:47:54;;;;;;;;;;;21.10;46.90;;;;;;457274;260;1184;-76
2021/05/13 09:49:56;;;;;;;;;;;21.20;46.90;;;;;;457250;260;1171;-76
2021/05/13 09:51:58;;;;;;;;;;;21.30;46.80;;;;;;457167;260;1295;-75
2021/05/13 09:53:58;;;;;;;;;;;21.20;46.70;;;;;;457307;260;1266;-76
2021/05/13 09:56:00;;;;;;;;;;;21.20;46.70;;;;;;457196;260;1164;-76
2021/05/13 09:58:01;;;;;;;;;;;21.20;46.60;;;;;;457281;260;2215;-76
2021/05/13 10:00:02;;;;;;;;;;;21.20;46.70;;;;;;457207;260;1200;-75
2021/05/13 10:02:03;;;;;;;;;;;21.20;46.70;;;;;;457174;255;1161;-76
2021/05/13 10:04:05;;;;;;;;;;;21.20;46.70;;;;;;457321;260;1010;-76
2021/05/13 10:06:06;;;;;;;;;;;21.20;46.60;;;;;;457267;260;1182;-75
2021/05/13 10:08:07;;;;;;;;;;;21.30;46.50;;;;;;457335;260;1068;-75
2021/05/13 10:10:09;;;;;;;;;;;21.30;46.50;;;;;;457211;260;993;-75
2021/05/13 10:12:10;;;;;;;;;;;21.30;46.20;;;;;;457307;260;1244;-75
2021/05/13 10:14:11;;;;;;;;;;;21.30;46.20;;;;;;457251;260;1325;-76
2021/05/13 10:16:12;;;;;;;;;;;21.30;46.20;;;;;;457235;260;1141;-75
2021/05/13 10:18:14;;;;;;;;;;;21.30;46.30;;;;;;457265;260;2155;-75
2021/05/13 10:20:15;;;;;;;;;;;21.30;46.20;;;;;;457165;260;1138;-75
2021/05/13 10:22:16;;;;;;;;;;;21.40;46.10;;;;;;457249;260;1141;-76
2021/05/13 10:24:18;;;;;;;;;;;21.40;46.10;;;;;;457361;260;1078;-76
2021/05/13 10:26:19;;;;;;;;;;;21.30;46.20;;;;;;457297;260;1211;-76
2021/05/13 10:28:20;;;;;;;;;;;21.30;46.10;;;;;;457349;260;1079;-76
2021/05/13 10:30:21;;;;;;;;;;;21.30;46.10;;;;;;457356;260;1086;-76
2021/05/13 10:32:23;;;;;;;;;;;21.30;46.20;;;;;;457330;260;1191;-76
2021/05/13 10:34:24;;;;;;;;;;;21.30;46.10;;;;;;457364;260;1078;-75
2021/05/13 10:36:25;;;;;;;;;;;21.30;45.90;;;;;;457280;260;1135;-76
2021/05/13 10:38:27;;;;;;;;;;;21.40;46.00;;;;;;457356;260;2214;-76
2021/05/13 10:40:41;;;;;;;;;;;21.30;45.90;;;;;;457256;260;1121;-75
2021/05/13 10:42:32;;;;;;;;;;;21.30;45.90;;;;;;456844;260;1467;-76
2021/05/13 10:44:33;;;;;;;;;;;21.40;45.70;;;;;;457279;260;1071;-75
2021/05/13 10:46:34;;;;;;;;;;;21.40;45.80;;;;;;457254;260;1234;-75
2021/05/13 10:48:35;;;;;;;;;;;21.50;45.60;;;;;;457306;260;1236;-76
2021/05/13 10:50:37;;;;;;;;;;;21.30;45.70;;;;;;457215;260;1079;-75
2021/05/13 10:52:41;;;;;;;;;;;21.30;45.80;;;;;;457321;257;1341;-76
2021/05/13 10:54:40;;;;;;;;;;;21.40;45.80;;;;;;457397;260;1354;-75
2021/05/13 10:56:41;;;;;;;;;;;21.30;45.70;;;;;;457290;256;1255;-75
2021/05/13 10:58:43;;;;;;;;;;;21.30;45.70;;;;;;457403;260;2155;-75
2021/05/13 11:00:44;;;;;;;;;;;21.30;45.60;;;;;;457307;260;1153;-76
2021/05/13 11:02:45;;;;;;;;;;;21.40;45.60;;;;;;457359;260;1124;-75
2021/05/13 11:04:46;;;;;;;;;;;21.40;45.70;;;;;;457393;260;1054;-75
2021/05/13 11:06:48;;;;;;;;;;;21.40;45.60;;;;;;457310;260;1312;-76
2021/05/13 11:08:49;;;;;;;;;;;21.40;45.50;;;;;;457259;260;1019;-75
2021/05/13 11:10:50;;;;;;;;;;;21.40;45.50;;;;;;457139;260;1137;-76
2021/05/13 11:12:55;;;;;;;;;;;21.40;45.60;;;;;;457311;260;1099;-76
2021/05/13 11:14:53;;;;;;;;;;;21.30;45.60;;;;;;457207;260;1263;-76
2021/05/13 11:16:56;;;;;;;;;;;21.30;45.80;;;;;;457258;260;1181;-75
2021/05/13 11:18:59;;;;;;;;;;;21.30;45.70;;;;;;457399;260;2210;-75
2021/05/13 11:20:57;;;;;;;;;;;21.30;45.70;;;;;;457086;260;1496;-75
2021/05/13 11:22:58;;;;;;;;;;;21.30;45.90;;;;;;457281;260;1227;-76
2021/05/13 11:25:00;;;;;;;;;;;21.40;45.70;;;;;;457339;260;1119;-75
2021/05/13 11:27:01;;;;;;;;;;;21.40;45.60;;;;;;457274;260;1292;-76
2021/05/13 11:29:04;;;;;;;;;;;21.40;45.70;;;;;;457375;260;1000;-75
2021/05/13 11:31:04;;;;;;;;;;;21.30;45.90;;;;;;457237;260;1358;-76
2021/05/13 11:33:05;;;;;;;;;;;21.20;45.90;;;;;;457293;260;1094;-76
2021/05/13 11:35:06;;;;;;;;;;;21.20;46.00;;;;;;457230;260;1383;-75
2021/05/13 11:37:07;;;;;;;;;;;21.10;46.10;;;;;;457217;260;1371;-75
2021/05/13 11:39:10;;;;;;;;;;;21.10;46.30;;;;;;457251;260;2222;-75
2021/05/13 11:41:10;;;;;;;;;;;21.00;46.30;;;;;;457172;260;1394;-76
2021/05/13 11:43:12;;;;;;;;;;;21.00;46.30;;;;;;457328;260;1051;-76
2021/05/13 11:45:13;;;;;;;;;;;21.00;46.40;;;;;;457289;260;1155;-76
2021/05/13 11:47:14;;;;;;;;;;;21.00;46.40;;;;;;457264;260;1200;-75
2021/05/13 11:49:15;;;;;;;;;;;21.10;46.30;;;;;;457349;260;1102;-75
2021/05/13 11:51:17;;;;;;;;;;;21.00;46.20;;;;;;457335;260;1045;-75
2021/05/13 11:53:18;;;;;;;;;;;21.10;46.30;;;;;;457433;260;1174;-75
2021/05/13 11:55:19;;;;;;;;;;;21.10;46.30;;;;;;457354;260;1001;-75
2021/05/13 11:57:21;;;;;;;;;;;21.00;46.30;;;;;;457287;260;1139;-75